Terminal Aerodrome Forecast
Issued by NWS

Home | Current Version | Previous Version | Text Only | Print | Product List | Glossary On
Versions: 1 2 3 4 5 6 7 8 9 10 11 12 13 14 15 16 17
000
FTAK31 PAFA 031722
TAFAQT
TAF
PAQT 031722Z 0318/0418 03008KT 6SM -SN BR FEW005 OVC012
     FM032100 06010KT 4SM -SN BR BKN008 OVC012
     FM040600 06008KT 6SM -SN BR OVC008=

USA.gov is the U.S. government's official web portal to all federal, state and local government web resources and services.